Time;durP1;ratioP1;P1;durP2;ratioP2;P2;SDS_P1;SDS_P2;PMS_P1;PMS_P2;Temp;Humidity;BMP_temperature;BMP_pressure;BME280_temperature;BME280_humidity;BME280_pressure;Samples;Min_cycle;Max_cycle;Signal;HPM_P1;HPM_P2
2022/07/16 00:02:34;;;;;;;17.13;3.67;;;15.90;99.90;;;;;;6121724;23;20084;-83
2022/07/16 00:05:27;;;;;;;;;;;;;;;;;;;;;
2022/07/16 00:08:47;;;;;;;10.98;3.70;;;16.30;99.90;;;;;;6096585;23;20405;-83
2022/07/16 00:15:09;;;;;;;;;;;;;;;;;;;;;
2022/07/16 00:19:15;;;;;;;5.85;2.00;;;16.00;99.90;;;;;;5980130;23;20021;-83
2022/07/16 00:21:29;;;;;;;;;;;;;;;;;;;;;
2022/07/16 00:24:33;;;;;;;8.40;2.63;;;15.70;99.90;;;;;;6035977;23;20006;-83
2022/07/16 00:27:26;;;;;;;11.18;2.70;;;15.60;99.90;;;;;;6071952;23;20017;-83
2022/07/16 00:30:25;;;;;;;9.25;2.40;;;15.80;99.90;;;;;;6041526;23;20514;-83
2022/07/16 00:33:29;;;;;;;16.15;2.95;;;15.60;99.90;;;;;;6066620;23;20014;-83
2022/07/16 00:36:44;;;;;;;12.27;2.78;;;15.70;99.90;;;;;;6007609;23;20011;-83
2022/07/16 00:39:50;;;;;;;10.20;2.55;;;15.60;99.90;;;;;;6001014;23;20018;-84
2022/07/16 00:46:16;;;;;;;6.47;2.40;;;15.60;99.90;;;;;;6046880;23;20122;-83
2022/07/16 00:49:15;;;;;;;;;;;;;;;;;;;;;
2022/07/16 00:52:03;;;;;;;4.13;1.38;;;15.60;99.90;;;;;;6020017;23;20051;-83
2022/07/16 00:54:49;;;;;;;7.45;1.95;;;15.60;99.90;;;;;;5985318;23;20334;-83
2022/07/16 00:58:02;;;;;;;6.03;1.80;;;15.70;99.90;;;;;;6004217;23;20007;-83
2022/07/16 01:00:58;;;;;;;;;;;;;;;;;;;;;
2022/07/16 01:03:54;;;;;;;6.78;1.50;;;15.70;99.90;;;;;;6051444;23;20236;-82
2022/07/16 01:06:34;;;;;;;6.18;1.60;;;15.60;99.90;;;;;;6044398;23;20055;-84
2022/07/16 01:09:26;;;;;;;5.93;1.55;;;15.60;99.90;;;;;;6043893;23;20106;-82
2022/07/16 01:12:48;;;;;;;7.50;1.75;;;15.60;99.90;;;;;;6042384;23;20082;-83
2022/07/16 01:15:23;;;;;;;5.97;2.40;;;15.60;99.90;;;;;;6025116;23;20015;-83
2022/07/16 01:18:29;;;;;;;8.57;1.90;;;15.50;99.90;;;;;;6044885;23;20325;-82
2022/07/16 01:21:06;;;;;;;6.55;2.15;;;15.50;99.90;;;;;;6070308;23;20010;-82
2022/07/16 01:23:40;;;;;;;7.72;2.00;;;15.50;99.90;;;;;;6066235;23;20026;-82
2022/07/16 01:26:09;;;;;;;7.00;1.58;;;15.40;99.90;;;;;;6070687;23;20378;-82
2022/07/16 01:28:49;;;;;;;6.30;1.88;;;15.40;99.90;;;;;;6072085;23;20069;-83
2022/07/16 01:31:25;;;;;;;;;;;15.30;99.90;;;;;;6049363;23;20438;-82
2022/07/16 01:36:44;;;;;;;9.13;2.90;;;15.30;99.90;;;;;;6075012;23;20502;-82
2022/07/16 01:39:22;;;;;;;7.75;1.90;;;15.20;99.90;;;;;;6048163;23;20032;-82
2022/07/16 01:42:13;;;;;;;9.30;2.53;;;15.20;99.90;;;;;;6072368;23;20048;-82
2022/07/16 01:44:41;;;;;;;6.70;2.38;;;15.20;99.90;;;;;;6091455;23;20014;-83
2022/07/16 01:47:20;;;;;;;11.43;1.85;;;15.20;99.90;;;;;;6097282;23;20022;-82
2022/07/16 01:50:00;;;;;;;8.32;1.80;;;15.20;99.90;;;;;;6073613;23;20010;-82
2022/07/16 01:52:33;;;;;;;8.60;2.30;;;15.20;99.90;;;;;;6070522;23;20014;-82
2022/07/16 01:55:15;;;;;;;6.10;1.98;;;15.20;99.90;;;;;;6069987;23;20006;-82
2022/07/16 01:57:55;;;;;;;12.68;2.00;;;15.20;99.90;;;;;;6095286;23;20049;-82
2022/07/16 02:00:57;;;;;;;4.03;1.70;;;15.10;99.90;;;;;;6071299;23;20014;-82
2022/07/16 02:03:37;;;;;;;5.47;2.00;;;15.10;99.90;;;;;;6071694;23;20453;-82
2022/07/16 02:06:14;;;;;;;6.20;2.00;;;15.10;99.90;;;;;;6072342;23;20065;-82
2022/07/16 02:08:48;;;;;;;5.85;2.20;;;15.10;99.90;;;;;;6074657;23;20046;-82
2022/07/16 02:11:19;;;;;;;4.68;2.00;;;15.10;99.90;;;;;;6051056;23;20037;-84
2022/07/16 02:13:56;;;;;;;6.47;2.20;;;15.10;99.90;;;;;;6073633;23;20369;-83
2022/07/16 02:16:25;;;;;;;12.68;2.20;;;15.00;99.90;;;;;;6074297;23;20014;-82
2022/07/16 02:19:03;;;;;;;12.38;2.33;;;15.00;99.90;;;;;;6073682;23;20010;-82
2022/07/16 02:21:35;;;;;;;14.57;2.60;;;15.00;99.90;;;;;;6073149;23;20456;-82
2022/07/16 02:24:13;;;;;;;6.70;1.85;;;15.00;99.90;;;;;;6097502;23;20044;-83
2022/07/16 02:26:45;;;;;;;6.40;2.28;;;15.00;99.90;;;;;;6073765;23;20014;-83
2022/07/16 02:29:24;;;;;;;8.73;2.15;;;15.00;99.90;;;;;;6096640;23;20070;-82
2022/07/16 02:32:16;;;;;;;9.32;2.30;;;15.00;99.90;;;;;;6074447;23;20014;-83
2022/07/16 02:35:01;;;;;;;6.75;2.28;;;14.90;99.90;;;;;;6072449;23;20017;-83
2022/07/16 02:37:40;;;;;;;6.95;2.17;;;14.90;99.90;;;;;;6074065;23;20066;-83
2022/07/16 02:40:15;;;;;;;7.95;2.50;;;14.90;99.90;;;;;;6050715;23;20021;-84
2022/07/16 02:42:54;;;;;;;8.45;2.47;;;14.80;99.90;;;;;;6075042;23;20069;-84
2022/07/16 02:45:42;;;;;;;10.07;2.33;;;14.80;99.90;;;;;;6074855;23;20493;-83
2022/07/16 02:48:15;;;;;;;10.10;2.67;;;14.70;99.90;;;;;;6073588;23;20014;-83
2022/07/16 02:50:53;;;;;;;5.38;2.10;;;14.70;99.90;;;;;;6051293;23;20006;-83
2022/07/16 02:53:24;;;;;;;9.38;2.40;;;14.60;99.90;;;;;;6073736;23;20362;-82
2022/07/16 02:56:18;;;;;;;11.40;2.50;;;14.50;99.90;;;;;;6047897;23;20010;-83
2022/07/16 02:59:12;;;;;;;7.18;2.22;;;14.50;99.90;;;;;;6096281;23;20026;-83
2022/07/16 03:01:51;;;;;;;8.23;2.30;;;14.50;99.90;;;;;;6074075;23;20063;-82
2022/07/16 03:04:23;;;;;;;9.18;3.20;;;14.40;99.90;;;;;;6074644;23;20067;-82
2022/07/16 03:06:59;;;;;;;11.40;2.33;;;14.40;99.90;;;;;;6073354;23;20022;-81
2022/07/16 03:09:31;;;;;;;11.32;2.55;;;14.40;99.90;;;;;;6050628;23;20022;-82
2022/07/16 03:12:24;;;;;;;;;;;;;;;;;;;;;
2022/07/16 03:14:53;;;;;;;;;;;14.30;99.90;;;;;;6139662;23;20089;-81
2022/07/16 03:17:40;;;;;;;8.63;2.10;;;14.20;99.90;;;;;;6094859;23;19909;-82
2022/07/16 03:20:09;;;;;;;9.68;2.00;;;14.20;99.90;;;;;;6072935;23;20014;-81
2022/07/16 03:23:00;;;;;;;6.25;1.83;;;14.20;99.90;;;;;;6069238;23;20015;-82
2022/07/16 03:25:35;;;;;;;15.13;2.67;;;14.20;99.90;;;;;;6075441;23;20054;-83
2022/07/16 03:28:16;;;;;;;8.05;1.40;;;14.10;99.90;;;;;;6073056;23;20018;-83
2022/07/16 03:30:42;;;;;;;8.93;1.45;;;14.20;99.90;;;;;;6073000;23;20010;-83
2022/07/16 03:33:26;;;;;;;6.55;2.03;;;14.10;99.90;;;;;;6096106;23;20014;-81
2022/07/16 03:36:05;;;;;;;7.75;1.67;;;14.00;99.90;;;;;;6073979;23;20014;-83
2022/07/16 03:41:59;;;;;;;7.40;2.25;;;14.20;99.90;;;;;;6096634;23;20021;-83
2022/07/16 03:44:35;;;;;;;10.23;1.80;;;14.00;99.90;;;;;;6095935;23;20076;-81
2022/07/16 03:47:05;;;;;;;11.20;2.03;;;14.00;99.90;;;;;;6095578;23;20025;-81
2022/07/16 03:49:39;;;;;;;9.75;1.65;;;14.10;99.90;;;;;;6070492;23;20018;-83
2022/07/16 03:52:13;;;;;;;12.05;2.45;;;14.10;99.90;;;;;;6071537;23;20436;-82
2022/07/16 03:55:10;;;;;;;8.93;1.50;;;14.10;99.90;;;;;;6072095;23;20010;-81
2022/07/16 03:57:52;;;;;;;12.13;2.15;;;14.00;99.90;;;;;;6095572;23;20007;-81
2022/07/16 04:00:20;;;;;;;12.57;2.42;;;14.00;99.90;;;;;;6071657;23;20010;-82
2022/07/16 04:02:54;;;;;;;11.25;2.10;;;14.00;99.90;;;;;;6072624;23;20089;-82
2022/07/16 04:05:35;;;;;;;7.05;1.80;;;14.00;99.90;;;;;;6073163;23;20387;-81
2022/07/16 04:08:07;;;;;;;7.07;1.63;;;14.00;99.90;;;;;;6072547;23;20090;-81
2022/07/16 04:10:40;;;;;;;5.90;1.65;;;14.00;99.90;;;;;;6073037;23;20011;-82
2022/07/16 04:13:19;;;;;;;6.65;1.73;;;14.00;99.90;;;;;;6072881;23;20065;-83
2022/07/16 04:15:48;;;;;;;9.45;1.90;;;13.90;99.90;;;;;;6049451;23;20010;-82
2022/07/16 04:18:19;;;;;;;10.60;2.00;;;14.00;99.90;;;;;;6072405;23;20097;-81
2022/07/16 04:21:00;;;;;;;11.02;2.13;;;14.00;99.90;;;;;;6072020;23;20014;-82
2022/07/16 04:23:35;;;;;;;11.40;2.80;;;14.00;99.90;;;;;;6073476;23;20033;-83
2022/07/16 04:26:14;;;;;;;10.73;1.80;;;14.00;99.90;;;;;;6049825;23;20014;-81
2022/07/16 04:28:40;;;;;;;6.67;1.80;;;14.00;99.90;;;;;;6048822;23;20014;-74
2022/07/16 04:31:06;;;;;;;5.93;1.50;;;14.00;99.90;;;;;;6072478;23;20069;-73
2022/07/16 04:34:19;;;;;;;8.90;2.00;;;14.00;99.90;;;;;;6072102;23;20010;-77
2022/07/16 04:41:18;;;;;;;9.90;2.42;;;14.10;99.90;;;;;;5981204;24;20084;-74
2022/07/16 04:44:14;;;;;;;10.15;1.75;;;14.20;99.90;;;;;;6083520;23;20021;-74
2022/07/16 04:51:23;;;;;;;;;;;;;;;;;;;;;
2022/07/16 04:57:40;;;;;;;6.05;1.30;;;14.60;99.90;;;;;;6096388;23;20074;-74
2022/07/16 05:01:08;;;;;;;;;;;;;;;;;;;;;
2022/07/16 05:42:57;;;;;;;7.82;1.35;;;16.90;99.90;;;;;;5830100;24;20089;-74
2022/07/16 05:46:14;;;;;;;8.20;1.37;;;17.00;99.90;;;;;;5872627;24;20060;-73
2022/07/16 06:00:47;;;;;;;7.65;1.48;;;16.40;99.90;;;;;;5843490;24;20022;-74
2022/07/16 06:14:42;;;;;;;7.75;1.40;;;16.10;99.90;;;;;;5949646;24;20439;-74
2022/07/16 06:17:45;;;;;;;7.45;1.50;;;16.10;99.90;;;;;;5957047;24;20067;-74
2022/07/16 06:21:03;;;;;;;9.38;1.83;;;16.00;99.90;;;;;;6034008;23;20018;-73
2022/07/16 06:24:54;;;;;;;;;;;;;;;;;;;;;
2022/07/16 06:42:23;;;;;;;11.35;1.65;;;17.30;95.10;;;;;;6037726;23;20047;-78
2022/07/16 07:01:19;;;;;;;5.78;1.17;;;18.10;91.90;;;;;;6038815;23;20484;-75
2022/07/16 09:14:38;;;;;;;11.70;1.40;;;19.80;92.30;;;;;;6151191;23;20044;-69
2022/07/16 09:21:01;;;;;;;11.38;1.33;;;19.50;91.90;;;;;;6003676;23;20014;-71
2022/07/16 09:23:39;;;;;;;8.98;2.15;;;19.10;92.50;;;;;;6099443;23;20010;-73
2022/07/16 09:30:30;;;;;;;11.23;1.83;;;19.40;92.10;;;;;;6063934;23;20026;-71
2022/07/16 09:33:33;;;;;;;11.50;1.48;;;19.50;91.70;;;;;;6010920;23;20014;-72
2022/07/16 09:36:16;;;;;;;10.60;1.60;;;19.60;91.80;;;;;;6081955;23;20013;-74
2022/07/16 09:38:55;;;;;;;8.05;1.23;;;19.50;90.60;;;;;;6100553;23;20018;-73
2022/07/16 09:41:24;;;;;;;9.88;2.78;;;19.50;91.30;;;;;;6125377;23;20425;-73
2022/07/16 09:43:53;;;;;;;8.35;1.25;;;19.50;91.10;;;;;;6100785;23;20428;-72
2022/07/16 09:46:21;;;;;;;8.63;1.63;;;19.40;90.00;;;;;;6100530;23;20444;-72
2022/07/16 09:48:47;;;;;;;10.90;1.58;;;19.60;90.90;;;;;;6124964;23;20014;-72
2022/07/16 09:51:13;;;;;;;6.35;1.30;;;19.70;90.50;;;;;;6125182;23;20104;-72
2022/07/16 09:53:40;;;;;;;7.32;1.27;;;19.50;90.10;;;;;;6124902;23;20014;-72
2022/07/16 09:56:26;;;;;;;9.25;1.15;;;19.20;89.50;;;;;;6125026;23;20010;-72
2022/07/16 09:59:00;;;;;;;7.75;1.30;;;19.20;89.00;;;;;;6100840;23;20053;-71
2022/07/16 10:01:26;;;;;;;9.95;1.33;;;19.40;89.10;;;;;;6125096;23;20010;-72
2022/07/16 10:03:52;;;;;;;6.70;1.65;;;19.70;89.60;;;;;;6125079;23;20010;-72
2022/07/16 10:06:23;;;;;;;;;;;19.80;85.10;;;;;;6100772;23;20016;-73
2022/07/16 10:09:00;;;;;;;6.95;1.42;;;19.70;86.90;;;;;;6124422;23;19951;-72
2022/07/16 10:11:37;;;;;;;8.52;1.30;;;19.60;87.90;;;;;;6100707;23;20014;-73
2022/07/16 10:14:03;;;;;;;6.63;1.10;;;19.90;87.50;;;;;;6126039;23;20010;-71
2022/07/16 10:17:10;;;;;;;6.00;1.45;;;19.90;84.20;;;;;;6124874;23;20332;-73
2022/07/16 10:19:52;;;;;;;4.75;1.13;;;19.80;84.10;;;;;;6058570;23;20049;-73
2022/07/16 10:22:38;;;;;;;10.43;1.58;;;20.00;84.60;;;;;;6101462;23;20017;-73
2022/07/16 10:25:13;;;;;;;8.20;1.48;;;20.20;86.10;;;;;;6100840;23;20009;-72
2022/07/16 10:27:45;;;;;;;5.22;1.10;;;20.50;85.90;;;;;;6126040;23;20084;-73
2022/07/16 10:30:21;;;;;;;4.00;1.15;;;20.70;84.10;;;;;;6125914;23;20006;-73
2022/07/16 10:33:14;;;;;;;7.75;1.48;;;20.50;82.40;;;;;;6102709;23;20293;-77
2022/07/16 10:36:38;;;;;;;5.70;1.17;;;20.40;81.50;;;;;;6128429;23;20009;-75
2022/07/16 10:43:15;;;;;;;7.22;1.25;;;20.50;84.90;;;;;;5998480;23;20019;-77
2022/07/16 10:46:00;;;;;;;7.32;1.17;;;20.50;82.10;;;;;;6093583;23;20065;-73
2022/07/16 10:48:57;;;;;;;6.20;1.70;;;20.20;82.50;;;;;;6064238;23;20448;-78
2022/07/16 10:51:27;;;;;;;7.00;1.60;;;19.60;82.90;;;;;;6102645;23;20401;-80
2022/07/16 10:53:56;;;;;;;8.40;1.85;;;19.70;86.10;;;;;;6126918;23;20017;-77
2022/07/16 10:56:47;;;;;;;9.52;1.70;;;20.00;87.30;;;;;;6126614;23;20005;-79
2022/07/16 10:59:26;;;;;;;8.13;1.90;;;19.80;87.40;;;;;;6102417;23;20328;-79
2022/07/16 11:01:57;;;;;;;6.20;1.40;;;20.00;86.50;;;;;;6103145;23;20018;-79
2022/07/16 11:04:46;;;;;;;11.50;1.88;;;20.10;86.60;;;;;;6102550;23;20089;-79
2022/07/16 11:07:14;;;;;;;6.60;1.58;;;20.00;84.40;;;;;;6102077;23;20018;-77
2022/07/16 11:09:42;;;;;;;9.07;1.45;;;19.80;84.60;;;;;;6102443;23;20009;-76
2022/07/16 11:12:10;;;;;;;6.80;1.65;;;19.90;82.90;;;;;;6127020;23;20096;-78
2022/07/16 11:14:36;;;;;;;5.90;1.13;;;20.00;83.30;;;;;;6126516;23;20061;-77
2022/07/16 11:17:03;;;;;;;14.50;1.52;;;20.60;82.40;;;;;;6102883;23;20029;-80
2022/07/16 11:19:29;;;;;;;6.28;1.52;;;21.00;82.60;;;;;;6126700;23;20141;-78
2022/07/16 11:21:55;;;;;;;7.18;1.40;;;21.50;82.60;;;;;;6126972;23;20061;-78
2022/07/16 11:24:26;;;;;;;6.05;1.20;;;21.90;81.70;;;;;;6101769;23;20045;-79
2022/07/16 11:26:52;;;;;;;7.22;1.17;;;22.10;80.40;;;;;;6126451;23;20018;-79
2022/07/16 11:29:23;;;;;;;6.72;1.48;;;22.30;80.10;;;;;;6126650;23;20073;-79
2022/07/16 11:31:59;;;;;;;4.15;1.23;;;22.10;80.20;;;;;;6126968;23;20006;-80
2022/07/16 14:22:00;;;;;;;11.70;1.23;;;22.70;75.70;;;;;;6148495;23;20021;-81
2022/07/16 14:25:06;;;;;;;6.18;0.93;;;22.70;72.90;;;;;;6183840;23;20514;-77
2022/07/16 14:27:36;;;;;;;4.03;0.65;;;22.30;74.30;;;;;;6195617;23;20013;-82
2022/07/16 14:34:17;;;;;;;6.18;0.90;;;21.90;72.00;;;;;;6185507;23;20008;-78
2022/07/16 14:43:34;;;;;;;7.82;0.73;;;23.30;70.50;;;;;;6095260;23;20026;-76
2022/07/16 16:45:51;;;;;;;4.53;0.80;;;24.00;60.50;;;;;;6162646;23;20408;-79
2022/07/16 16:48:16;;;;;;;6.18;1.00;;;23.80;61.80;;;;;;6155089;23;20017;-78
2022/07/16 16:50:51;;;;;;;5.63;0.70;;;23.40;63.20;;;;;;6079485;23;20331;-74
2022/07/16 17:07:52;;;;;;;5.17;0.80;;;21.10;69.40;;;;;;6132410;23;20348;-73
2022/07/16 17:14:17;;;;;;;6.60;0.90;;;20.20;71.60;;;;;;6036879;23;20017;-73
2022/07/16 17:20:39;;;;;;;5.28;0.98;;;19.70;73.70;;;;;;5979797;23;20546;-74
2022/07/16 17:55:28;;;;;;;6.45;1.00;;;18.50;80.10;;;;;;6141948;23;20085;-73
2022/07/16 17:57:54;;;;;;;5.88;1.20;;;18.20;80.60;;;;;;6134017;23;20094;-76
2022/07/16 18:00:36;;;;;;;6.43;1.50;;;18.00;79.90;;;;;;6158407;23;20019;-75
2022/07/16 18:03:04;;;;;;;9.85;1.70;;;18.00;81.80;;;;;;6156982;23;20455;-73
2022/07/16 18:09:53;;;;;;;9.90;1.38;;;17.80;82.40;;;;;;6063224;23;20018;-75
2022/07/16 18:16:05;;;;;;;8.90;1.20;;;17.70;85.00;;;;;;6079724;23;20013;-74
2022/07/16 18:19:13;;;;;;;5.78;1.10;;;17.70;84.60;;;;;;6131679;23;20012;-74
2022/07/16 18:21:54;;;;;;;7.25;1.27;;;17.70;86.70;;;;;;6157143;23;20013;-74
2022/07/16 18:24:28;;;;;;;7.10;1.10;;;17.60;86.90;;;;;;6157809;23;20059;-75
2022/07/16 18:26:53;;;;;;;5.78;2.10;;;17.60;86.40;;;;;;6133811;23;20084;-73
2022/07/16 18:29:47;;;;;;;6.53;1.17;;;17.60;87.00;;;;;;6133164;23;20144;-77
2022/07/16 18:32:13;;;;;;;7.55;1.48;;;17.70;87.70;;;;;;6158602;23;20013;-71
2022/07/16 18:34:38;;;;;;;6.13;1.27;;;17.50;87.50;;;;;;6133666;23;20305;-72
2022/07/16 18:37:10;;;;;;;6.03;1.00;;;17.40;87.40;;;;;;6158761;23;20012;-77
2022/07/16 18:39:36;;;;;;;4.70;0.80;;;17.20;87.50;;;;;;6110774;23;20096;-76
2022/07/16 18:42:03;;;;;;;7.80;1.33;;;17.20;88.60;;;;;;6159156;23;20041;-75
2022/07/16 18:44:29;;;;;;;7.47;1.33;;;17.10;88.50;;;;;;6134509;23;20040;-74
2022/07/16 18:46:54;;;;;;;6.85;1.17;;;17.00;89.40;;;;;;6134430;23;20041;-74
2022/07/16 18:49:20;;;;;;;4.93;1.30;;;17.00;89.50;;;;;;6135698;23;20020;-77
2022/07/16 18:51:46;;;;;;;6.80;1.23;;;17.00;90.00;;;;;;6136278;23;20001;-76
2022/07/16 18:54:12;;;;;;;9.25;1.45;;;17.00;90.30;;;;;;6135683;23;20020;-76
2022/07/16 18:56:38;;;;;;;7.47;1.00;;;16.90;90.30;;;;;;6134805;23;20017;-75
2022/07/16 20:01:29;;;;;;;13.45;1.50;;;15.40;95.80;;;;;;6108693;23;20037;-75
2022/07/16 20:04:10;;;;;;;9.35;1.10;;;15.40;95.90;;;;;;6160290;23;20013;-76
2022/07/16 20:06:51;;;;;;;4.72;1.08;;;15.30;96.10;;;;;;6159293;23;20356;-76
2022/07/16 20:09:17;;;;;;;5.50;1.40;;;15.30;96.70;;;;;;6189422;23;20005;-74
2022/07/16 20:11:46;;;;;;;14.32;2.15;;;15.20;96.30;;;;;;6164369;23;20031;-74
2022/07/16 20:14:57;;;;;;;13.43;1.95;;;15.10;96.80;;;;;;6165020;23;20015;-75
2022/07/16 20:20:58;;;;;;;12.10;1.30;;;15.00;98.40;;;;;;6068590;23;20520;-81
2022/07/16 20:23:53;;;;;;;6.75;1.42;;;14.80;98.40;;;;;;6069831;23;20018;-79
2022/07/16 20:26:34;;;;;;;6.20;1.40;;;14.70;99.20;;;;;;6126713;23;20056;-80
2022/07/16 20:29:13;;;;;;;16.17;1.35;;;14.60;98.90;;;;;;6079430;23;20092;-80
2022/07/16 20:31:42;;;;;;;7.38;1.30;;;14.50;99.90;;;;;;6104197;23;20269;-81
2022/07/16 20:57:06;;;;;;;8.27;1.63;;;14.10;99.90;;;;;;6179942;23;20048;-81
2022/07/16 21:06:09;;;;;;;9.05;1.52;;;13.80;99.90;;;;;;6126750;23;20036;-77
2022/07/16 21:21:39;;;;;;;;;;;;;;;;;;;;;
2022/07/16 22:01:07;;;;;;;7.50;1.63;;;13.20;99.90;;;;;;6155440;23;20100;-81
2022/07/16 22:04:27;;;;;;;6.53;2.13;;;13.10;99.90;;;;;;6105153;23;20060;-84
2022/07/16 22:07:32;;;;;;;8.57;1.55;;;13.20;99.90;;;;;;6075410;23;20009;-82
2022/07/16 22:13:48;;;;;;;6.85;1.58;;;13.00;99.90;;;;;;6155077;23;20341;-81
2022/07/16 22:16:28;;;;;;;5.30;1.70;;;13.00;99.90;;;;;;6105742;23;20013;-79
